Time;durP1;ratioP1;P1;durP2;ratioP2;P2;SDS_P1;SDS_P2;PMS_P1;PMS_P2;Temp;Humidity;BMP_temperature;BMP_pressure;BME280_temperature;BME280_humidity;BME280_pressure;Samples;Min_cycle;Max_cycle;Signal;HPM_P1;HPM_P2
2021/08/30 00:00:00;;;;;;;23.50;13.80;;;22.80;99.90;;;;;;5094864;28;20431;-81
2021/08/30 00:02:25;;;;;;;27.60;14.60;;;22.80;99.90;;;;;;5094996;28;20028;-81
2021/08/30 00:04:51;;;;;;;19.30;13.43;;;22.80;99.90;;;;;;5094627;28;20031;-81
2021/08/30 00:07:17;;;;;;;19.23;13.85;;;22.80;99.90;;;;;;5095937;28;20020;-81
2021/08/30 00:09:42;;;;;;;18.95;13.85;;;22.80;99.90;;;;;;5095757;28;20382;-81
2021/08/30 00:12:10;;;;;;;20.05;13.55;;;22.80;99.90;;;;;;5095572;28;20030;-82
2021/08/30 00:14:38;;;;;;;21.73;15.13;;;22.80;99.90;;;;;;5095591;28;20042;-81
2021/08/30 00:17:04;;;;;;;22.67;14.63;;;22.80;99.90;;;;;;5095881;28;20020;-82
2021/08/30 00:19:33;;;;;;;19.42;13.80;;;22.80;99.90;;;;;;5095922;28;20593;-81
2021/08/30 00:21:59;;;;;;;16.03;13.37;;;22.80;99.90;;;;;;5094794;28;20441;-81
2021/08/30 00:24:25;;;;;;;26.00;14.02;;;22.80;99.90;;;;;;5095830;28;20343;-81
2021/08/30 00:26:52;;;;;;;22.02;13.73;;;22.80;99.90;;;;;;5095530;28;20055;-82
2021/08/30 00:29:18;;;;;;;24.48;14.20;;;22.80;99.90;;;;;;5095339;28;20059;-82
2021/08/30 00:31:44;;;;;;;19.50;15.80;;;22.90;99.90;;;;;;5095664;28;20463;-81
2021/08/30 00:34:09;;;;;;;19.17;15.05;;;22.80;99.90;;;;;;5095521;28;20016;-81
2021/08/30 00:36:35;;;;;;;22.52;15.77;;;22.90;99.90;;;;;;5095796;28;20024;-81
2021/08/30 00:39:01;;;;;;;21.27;13.48;;;22.80;99.90;;;;;;5095705;28;20470;-82
2021/08/30 00:41:26;;;;;;;22.77;14.50;;;22.80;99.90;;;;;;5095530;28;20020;-81
2021/08/30 00:43:53;;;;;;;21.73;15.02;;;22.80;99.90;;;;;;5094224;28;20020;-82
2021/08/30 00:46:19;;;;;;;20.75;14.88;;;22.80;99.90;;;;;;5094473;28;20560;-81
2021/08/30 00:48:48;;;;;;;19.95;14.32;;;22.80;99.90;;;;;;5095154;28;20020;-84
2021/08/30 00:51:16;;;;;;;22.17;14.88;;;22.80;99.90;;;;;;5094058;28;20085;-82
2021/08/30 00:53:47;;;;;;;22.55;15.60;;;22.80;99.90;;;;;;5095063;28;20480;-81
2021/08/30 00:56:13;;;;;;;21.60;14.52;;;22.80;99.90;;;;;;5093973;28;20111;-81
2021/08/30 00:58:41;;;;;;;20.92;14.50;;;22.80;99.90;;;;;;5095055;28;20048;-81
2021/08/30 01:01:08;;;;;;;23.48;15.13;;;22.80;99.90;;;;;;5094924;28;20028;-85
2021/08/30 01:03:34;;;;;;;25.65;16.98;;;22.80;99.90;;;;;;5093579;28;20038;-81
2021/08/30 01:06:09;;;;;;;23.17;15.52;;;22.80;99.90;;;;;;5095042;28;20051;-82
2021/08/30 01:08:41;;;;;;;20.60;15.27;;;22.80;99.90;;;;;;5094811;28;20099;-79
2021/08/30 01:11:10;;;;;;;25.52;15.30;;;22.80;99.90;;;;;;5094670;28;20028;-86
2021/08/30 01:13:45;;;;;;;20.63;15.18;;;22.80;99.90;;;;;;5093617;28;20428;-81
2021/08/30 01:16:13;;;;;;;24.00;16.77;;;22.80;99.90;;;;;;5094769;28;20408;-81
2021/08/30 01:18:40;;;;;;;22.23;16.05;;;22.70;99.90;;;;;;5094823;28;20024;-81
2021/08/30 01:21:28;;;;;;;25.08;17.77;;;22.80;99.90;;;;;;5094529;28;20027;-81
2021/08/30 01:24:02;;;;;;;25.60;17.33;;;22.80;99.90;;;;;;5094713;28;20035;-82
2021/08/30 01:26:33;;;;;;;23.30;15.82;;;22.80;99.90;;;;;;5094635;28;20016;-82
2021/08/30 01:29:18;;;;;;;19.75;16.05;;;22.80;99.90;;;;;;5094512;28;20132;-81
2021/08/30 01:32:11;;;;;;;24.65;17.17;;;22.80;99.90;;;;;;5093294;28;20034;-82
2021/08/30 01:34:40;;;;;;;19.65;16.13;;;22.70;99.90;;;;;;5093381;28;20021;-84
2021/08/30 01:37:06;;;;;;;22.83;16.67;;;22.70;99.90;;;;;;5093177;28;20093;-82
2021/08/30 01:39:32;;;;;;;33.60;17.40;;;22.70;99.90;;;;;;5093916;28;20107;-86
2021/08/30 01:41:59;;;;;;;20.25;16.60;;;22.70;99.90;;;;;;5094403;28;20081;-81
2021/08/30 01:44:27;;;;;;;28.98;17.20;;;22.70;99.90;;;;;;5094210;28;20020;-82
2021/08/30 01:46:55;;;;;;;25.33;17.15;;;22.80;99.90;;;;;;5094438;28;20032;-83
2021/08/30 01:49:24;;;;;;;25.40;17.80;;;22.80;99.90;;;;;;5093099;28;20077;-83
2021/08/30 01:51:51;;;;;;;28.33;18.48;;;22.80;99.90;;;;;;5094210;28;20024;-82
2021/08/30 01:54:18;;;;;;;22.45;16.90;;;22.80;99.90;;;;;;5092592;28;20489;-81
2021/08/30 01:56:50;;;;;;;26.20;17.40;;;22.80;99.90;;;;;;5094109;28;20020;-82
2021/08/30 02:02:02;;;;;;;24.23;16.65;;;22.80;99.90;;;;;;5094293;28;20050;-81
2021/08/30 02:04:28;;;;;;;26.38;17.00;;;22.80;99.90;;;;;;5094336;28;20020;-83
2021/08/30 02:06:54;;;;;;;23.35;17.10;;;22.80;99.90;;;;;;5093920;28;20084;-81
2021/08/30 02:09:20;;;;;;;23.73;16.92;;;22.80;99.90;;;;;;5093651;28;20367;-81
2021/08/30 02:11:46;;;;;;;27.65;16.95;;;22.80;99.90;;;;;;5092480;28;20378;-84
2021/08/30 02:14:12;;;;;;;24.10;16.85;;;22.80;99.90;;;;;;5093926;28;20020;-81
2021/08/30 02:16:38;;;;;;;20.80;16.27;;;22.70;99.90;;;;;;5093837;28;20043;-83
2021/08/30 02:19:40;;;;;;;24.38;17.15;;;22.70;99.90;;;;;;5093626;28;20024;-80
2021/08/30 02:22:13;;;;;;;26.20;17.05;;;22.70;99.90;;;;;;5093834;28;20020;-82
2021/08/30 02:24:40;;;;;;;26.27;17.20;;;22.60;99.90;;;;;;5092593;28;20111;-82
2021/08/30 02:27:26;;;;;;;24.35;16.35;;;22.70;99.90;;;;;;5093716;28;20385;-86
2021/08/30 02:30:09;;;;;;;21.45;15.32;;;22.60;99.90;;;;;;5093035;28;20581;-85
2021/08/30 02:32:36;;;;;;;24.13;16.42;;;22.60;99.90;;;;;;5092417;28;20572;-82
2021/08/30 02:35:05;;;;;;;24.20;16.13;;;22.60;99.90;;;;;;5093678;28;20469;-81
2021/08/30 02:37:34;;;;;;;23.88;17.50;;;22.60;99.90;;;;;;5093654;28;20119;-84
2021/08/30 02:40:01;;;;;;;23.27;15.02;;;22.50;99.90;;;;;;5092073;28;20036;-83
2021/08/30 02:42:30;;;;;;;21.85;15.32;;;22.60;99.90;;;;;;5092031;28;20031;-83
2021/08/30 02:44:57;;;;;;;23.35;15.45;;;22.60;99.90;;;;;;5093450;28;20016;-87
2021/08/30 02:47:23;;;;;;;22.50;15.60;;;22.60;99.90;;;;;;5092058;28;20039;-81
2021/08/30 02:49:50;;;;;;;26.45;16.35;;;22.60;99.90;;;;;;5093189;28;20031;-82
2021/08/30 02:52:19;;;;;;;21.85;15.18;;;22.50;99.90;;;;;;5095141;28;20047;-83
2021/08/30 02:54:46;;;;;;;19.92;15.40;;;22.50;99.90;;;;;;5096165;28;20024;-82
2021/08/30 02:57:12;;;;;;;23.67;15.82;;;22.60;99.90;;;;;;5097561;28;20028;-83
2021/08/30 02:59:39;;;;;;;20.45;15.80;;;22.50;99.90;;;;;;5096178;28;20423;-85
2021/08/30 03:02:07;;;;;;;18.95;15.77;;;22.50;99.90;;;;;;5096277;28;20023;-83
2021/08/30 03:04:34;;;;;;;22.25;16.02;;;22.50;99.90;;;;;;5096031;28;20024;-83
2021/08/30 03:07:02;;;;;;;22.98;15.20;;;22.50;99.90;;;;;;5097455;28;20024;-82
2021/08/30 03:09:28;;;;;;;21.33;15.82;;;22.50;99.90;;;;;;5096935;28;20028;-82
2021/08/30 03:11:56;;;;;;;22.90;15.13;;;22.50;99.90;;;;;;5096061;28;20035;-83
2021/08/30 03:14:24;;;;;;;23.80;14.88;;;22.50;99.90;;;;;;5095858;28;20032;-82
2021/08/30 03:16:56;;;;;;;20.20;14.98;;;22.50;99.90;;;;;;5097021;28;20016;-82
2021/08/30 03:19:23;;;;;;;24.10;15.80;;;22.50;99.90;;;;;;5095911;28;20073;-87
2021/08/30 03:21:50;;;;;;;19.65;13.77;;;22.50;99.90;;;;;;5096587;28;20531;-84
2021/08/30 03:24:19;;;;;;;22.95;14.43;;;22.50;99.90;;;;;;5095764;28;20085;-84
2021/08/30 03:26:48;;;;;;;19.42;14.88;;;22.50;99.90;;;;;;5096480;28;20374;-86
2021/08/30 03:29:16;;;;;;;20.53;13.77;;;22.60;99.90;;;;;;5095437;28;20502;-85
2021/08/30 03:31:44;;;;;;;16.85;13.57;;;22.70;99.90;;;;;;5096747;28;20474;-83
2021/08/30 03:34:10;;;;;;;20.13;14.20;;;22.60;99.90;;;;;;5095279;28;20020;-86
2021/08/30 03:36:37;;;;;;;22.55;14.70;;;22.70;99.90;;;;;;5096256;28;20103;-81
2021/08/30 03:39:04;;;;;;;20.25;14.43;;;22.70;99.90;;;;;;5096613;28;20502;-87
2021/08/30 03:41:31;;;;;;;18.00;13.60;;;22.70;99.90;;;;;;5096523;28;20016;-81
2021/08/30 03:43:59;;;;;;;19.95;13.85;;;22.70;99.90;;;;;;5095393;28;20073;-84
2021/08/30 03:46:26;;;;;;;24.55;13.82;;;22.80;99.90;;;;;;5078667;28;20034;-85
2021/08/30 03:48:53;;;;;;;16.05;13.48;;;22.80;99.90;;;;;;5094947;28;20529;-83
2021/08/30 03:51:19;;;;;;;20.30;13.77;;;22.80;99.90;;;;;;5096399;28;20097;-86
2021/08/30 03:53:46;;;;;;;20.50;13.13;;;22.80;99.90;;;;;;5096184;28;20478;-86
2021/08/30 03:56:12;;;;;;;17.70;13.95;;;22.90;99.90;;;;;;5094629;28;20027;-88
2021/08/30 03:58:39;;;;;;;17.85;13.00;;;22.90;99.90;;;;;;5095027;28;20035;-83
2021/08/30 04:01:08;;;;;;;19.02;13.27;;;22.90;99.90;;;;;;5094762;28;20032;-88
2021/08/30 04:03:43;;;;;;;20.10;13.63;;;23.00;99.90;;;;;;5095499;28;20553;-86
2021/08/30 04:06:10;;;;;;;22.55;13.10;;;22.90;99.90;;;;;;5096870;28;20099;-86
2021/08/30 04:08:37;;;;;;;16.75;12.80;;;23.00;99.90;;;;;;5094073;28;20023;-85
2021/08/30 04:11:04;;;;;;;22.15;13.68;;;23.00;99.90;;;;;;5094124;28;20020;-88
2021/08/30 04:13:31;;;;;;;21.80;13.80;;;23.10;99.90;;;;;;5092949;28;20422;-88
2021/08/30 04:15:57;;;;;;;19.52;12.18;;;23.10;99.90;;;;;;5094463;28;20020;-87
2021/08/30 04:18:23;;;;;;;18.17;12.85;;;23.10;99.90;;;;;;5094537;28;20105;-87
2021/08/30 04:20:49;;;;;;;18.90;13.02;;;23.10;99.90;;;;;;5094103;28;20043;-82
2021/08/30 04:23:15;;;;;;;16.90;12.85;;;23.20;99.90;;;;;;5094019;28;20477;-84
